createdAt,value
2023-02-26T00:04:49.932Z,30.00
2023-02-26T00:14:58.951Z,33.00
2023-02-26T00:20:06.398Z,31.00
2023-02-26T00:25:11.060Z,33.00
2023-02-26T00:30:15.448Z,28.00
2023-02-26T00:35:19.785Z,27.00
2023-02-26T00:40:48.378Z,24.00
2023-02-26T00:46:13.104Z,18.00
2023-02-26T00:51:33.224Z,23.00
2023-02-26T00:56:37.823Z,15.50
2023-02-26T01:01:41.250Z,18.00
2023-02-26T01:06:50.962Z,12.00
2023-02-26T01:22:33.433Z,32.00
2023-02-26T01:38:08.426Z,34.00
2023-02-26T01:53:26.661Z,21.00
2023-02-26T02:03:37.917Z,13.00
2023-02-26T02:21:39.957Z,17.00
2023-02-26T02:26:59.767Z,24.00
2023-02-26T02:32:16.395Z,20.00
2023-02-26T02:37:37.344Z,19.50
2023-02-26T02:43:08.805Z,18.00
2023-02-26T02:48:19.356Z,19.00
2023-02-26T02:53:57.986Z,28.00
2023-02-26T02:59:11.397Z,24.33
2023-02-26T03:04:16.559Z,24.00
2023-02-26T03:09:19.997Z,28.50
2023-02-26T03:14:24.595Z,29.50
2023-02-26T03:19:36.982Z,26.00
2023-02-26T03:25:09.605Z,27.00
2023-02-26T03:30:46.639Z,32.00
2023-02-26T03:35:59.419Z,25.50
2023-02-26T03:41:18.310Z,18.50
2023-02-26T03:46:51.652Z,22.67
2023-02-26T03:52:02.672Z,14.00
2023-02-26T03:57:32.871Z,18.50
2023-02-26T04:04:22.591Z,14.00
2023-02-26T04:09:27.743Z,12.00
2023-02-26T04:14:33.351Z,12.00
2023-02-26T04:19:38.414Z,15.00
2023-02-26T04:24:42.776Z,9.00
2023-02-26T04:29:47.012Z,5.50
2023-02-26T04:34:50.420Z,9.33
2023-02-26T04:39:54.088Z,9.00
2023-02-26T04:44:57.442Z,8.00
2023-02-26T04:50:01.848Z,5.00
2023-02-26T04:55:08.069Z,11.00
2023-02-26T05:00:16.102Z,9.00
2023-02-26T05:05:19.725Z,4.00
2023-02-26T05:15:28.762Z,3.00
2023-02-26T05:20:33.914Z,7.67
2023-02-26T05:25:45.293Z,9.50
2023-02-26T05:30:49.316Z,9.50
2023-02-26T05:35:53.646Z,7.00
2023-02-26T05:40:58.350Z,9.00
2023-02-26T05:46:04.326Z,6.33
2023-02-26T05:51:08.566Z,1.00
2023-02-26T05:56:13.040Z,10.00
2023-02-26T06:01:17.632Z,8.00
2023-02-26T06:06:23.352Z,3.00
2023-02-26T06:11:27.896Z,1.00
2023-02-26T06:16:33.059Z,6.50
2023-02-26T06:21:37.626Z,7.00
2023-02-26T06:26:42.317Z,8.00
2023-02-26T06:31:47.062Z,11.00
2023-02-26T06:36:51.691Z,6.00
2023-02-26T06:41:55.723Z,9.00
2023-02-26T06:46:59.030Z,7.00
2023-02-26T06:52:03.009Z,6.50
2023-02-26T06:57:07.059Z,7.00
2023-02-26T07:02:17.408Z,8.00
2023-02-26T07:07:20.888Z,6.00
2023-02-26T07:12:24.937Z,9.00
2023-02-26T07:17:28.357Z,4.50
2023-02-26T07:22:31.918Z,6.00
2023-02-26T07:27:35.456Z,6.00
2023-02-26T07:32:40.002Z,11.00
2023-02-26T07:37:46.086Z,9.00
2023-02-26T07:42:49.536Z,8.00
2023-02-26T07:47:53.476Z,9.00
2023-02-26T07:52:57.580Z,5.50
2023-02-26T07:58:03.945Z,7.00
2023-02-26T08:03:08.032Z,10.00
2023-02-26T08:08:12.036Z,11.00
2023-02-26T08:13:16.307Z,7.00
2023-02-26T08:18:19.815Z,9.00
2023-02-26T08:23:23.262Z,10.00
2023-02-26T08:28:27.456Z,10.00
2023-02-26T08:38:34.860Z,5.00
2023-02-26T08:48:41.415Z,6.00
2023-02-26T08:53:46.782Z,9.00
2023-02-26T08:58:50.500Z,6.00
2023-02-26T09:03:54.544Z,5.00
2023-02-26T09:08:58.189Z,4.00
2023-02-26T09:14:03.694Z,5.00
2023-02-26T09:19:07.712Z,9.00
2023-02-26T09:24:15.995Z,5.00
2023-02-26T09:29:19.405Z,7.00
2023-02-26T09:34:22.719Z,5.50
2023-02-26T09:39:26.076Z,5.00
2023-02-26T09:44:35.517Z,4.00
2023-02-26T09:49:57.418Z,6.50
2023-02-26T09:55:05.773Z,6.00
2023-02-26T10:00:45.218Z,4.00
2023-02-26T10:06:16.550Z,3.00
2023-02-26T10:12:09.630Z,7.00
2023-02-26T10:17:32.830Z,7.00
2023-02-26T10:23:21.791Z,9.00
2023-02-26T10:29:10.036Z,4.00
2023-02-26T10:58:48.609Z,8.50
2023-02-26T11:03:58.417Z,5.00
2023-02-26T11:09:03.211Z,5.50
2023-02-26T11:14:09.364Z,6.00
2023-02-26T11:19:14.408Z,2.00
2023-02-26T11:24:44.447Z,4.00
2023-02-26T11:29:50.372Z,4.50
2023-02-26T11:34:55.481Z,4.00
2023-02-26T11:40:01.035Z,6.00
2023-02-26T11:45:06.333Z,6.50
2023-02-26T11:50:23.632Z,9.00
2023-02-26T11:55:35.144Z,5.00
2023-02-26T12:00:39.934Z,4.00
2023-02-26T12:05:43.196Z,0.00
2023-02-26T12:22:17.610Z,7.00
2023-02-26T12:27:27.517Z,3.50
2023-02-26T12:33:10.008Z,3.00
2023-02-26T12:38:16.535Z,2.00
2023-02-26T12:43:30.485Z,3.00
2023-02-26T12:53:57.701Z,6.00
2023-02-26T12:59:31.680Z,4.00
2023-02-26T13:04:54.034Z,7.50
2023-02-26T13:10:08.963Z,7.00
2023-02-26T13:15:52.045Z,11.00
2023-02-26T13:21:09.026Z,6.00
2023-02-26T13:26:14.605Z,3.00
2023-02-26T13:31:30.914Z,9.50
2023-02-26T13:36:35.667Z,13.00
2023-02-26T13:42:54.687Z,6.00
2023-02-26T13:48:32.421Z,13.00
2023-02-26T13:55:13.467Z,6.00
2023-02-26T14:00:36.578Z,6.00
2023-02-26T14:18:05.794Z,6.00
2023-02-26T14:23:44.068Z,6.00
2023-02-26T14:35:19.606Z,6.00
2023-02-26T14:40:28.479Z,8.00
2023-02-26T14:51:30.137Z,4.00
2023-02-26T15:02:03.709Z,10.00
2023-02-26T15:57:57.795Z,8.00
2023-02-26T16:09:32.768Z,4.00
2023-02-26T16:20:58.556Z,3.00
2023-02-26T16:37:45.929Z,7.50
2023-02-26T16:49:22.183Z,9.00
2023-02-26T16:54:28.256Z,7.00
2023-02-26T17:05:42.658Z,2.00
2023-02-26T17:10:54.646Z,13.67
2023-02-26T17:16:00.448Z,9.00
2023-02-26T17:21:05.718Z,6.50
2023-02-26T17:26:10.784Z,10.00
2023-02-26T17:31:48.262Z,17.00
2023-02-26T17:36:53.401Z,5.50
2023-02-26T17:42:04.000Z,9.00
2023-02-26T17:47:29.916Z,5.33
2023-02-26T17:52:53.065Z,10.00
2023-02-26T17:57:58.324Z,10.50
2023-02-26T18:08:01.309Z,18.00
2023-02-26T18:13:04.439Z,13.00
2023-02-26T18:18:08.791Z,7.50
2023-02-26T18:23:16.367Z,11.00
2023-02-26T18:28:24.004Z,14.00
2023-02-26T18:33:26.044Z,13.00
2023-02-26T18:38:32.812Z,11.33
2023-02-26T18:43:36.212Z,18.00
2023-02-26T18:48:40.138Z,17.00
2023-02-26T18:53:43.149Z,38.00
2023-02-26T18:58:45.694Z,46.00
2023-02-26T19:03:47.688Z,29.00
2023-02-26T19:08:49.644Z,25.00
2023-02-26T19:13:52.510Z,25.00
2023-02-26T19:18:54.807Z,17.00
2023-02-26T19:23:58.104Z,25.00
2023-02-26T19:29:00.534Z,19.50
2023-02-26T19:34:03.474Z,15.00
2023-02-26T19:44:10.058Z,24.00
2023-02-26T19:49:12.735Z,16.00
2023-02-26T19:54:14.713Z,11.00
2023-02-26T19:59:18.786Z,9.00
2023-02-26T20:04:20.672Z,10.00
2023-02-26T20:09:22.568Z,15.50
2023-02-26T20:14:24.793Z,11.00
2023-02-26T20:19:26.930Z,10.00
2023-02-26T20:24:30.024Z,12.00
2023-02-26T20:29:31.912Z,13.33
2023-02-26T20:34:34.079Z,15.00
2023-02-26T20:39:36.042Z,14.00
2023-02-26T20:44:43.425Z,14.00
2023-02-26T20:49:52.722Z,9.00
2023-02-26T20:54:56.562Z,10.00
2023-02-26T21:00:18.838Z,12.00
2023-02-26T21:05:21.086Z,14.50
2023-02-26T21:10:56.912Z,12.00
2023-02-26T21:15:58.814Z,17.00
2023-02-26T21:21:04.486Z,18.00
2023-02-26T21:26:07.014Z,8.00
2023-02-26T21:31:09.717Z,13.00
2023-02-26T21:36:13.642Z,15.33
2023-02-26T21:41:15.880Z,17.00
2023-02-26T21:46:17.739Z,14.33
2023-02-26T21:51:23.579Z,12.00
2023-02-26T21:56:26.068Z,10.00
2023-02-26T22:01:28.181Z,11.00
2023-02-26T22:06:32.171Z,9.00
2023-02-26T22:11:34.422Z,12.50
2023-02-26T22:16:36.418Z,14.00
2023-02-26T22:21:38.701Z,11.33
2023-02-26T22:26:42.517Z,11.00
2023-02-26T22:31:45.079Z,10.00
2023-02-26T22:36:47.132Z,14.00
2023-02-26T22:42:42.873Z,15.00
2023-02-26T22:47:47.525Z,13.00
2023-02-26T22:52:49.421Z,12.50
2023-02-26T22:57:51.976Z,9.67
2023-02-26T23:02:54.855Z,10.50
2023-02-26T23:07:57.023Z,10.00
2023-02-26T23:13:01.722Z,10.00
2023-02-26T23:18:04.485Z,7.00
2023-02-26T23:23:06.568Z,9.00
2023-02-26T23:28:09.916Z,12.00
2023-02-26T23:33:13.796Z,5.00
2023-02-26T23:38:15.984Z,10.00
2023-02-26T23:43:17.853Z,13.00
2023-02-26T23:48:19.829Z,14.00
2023-02-26T23:53:22.230Z,12.00
2023-02-26T23:58:26.012Z,9.50
